sensor_id;sensor_type;location;lat;lon;timestamp;temperature;humidity
6291;DHT22;3178;48.730;8.990;2023-04-06T00:01:10;1.70;99.90
6291;DHT22;3178;48.730;8.990;2023-04-06T00:03:36;1.70;99.90
6291;DHT22;3178;48.730;8.990;2023-04-06T00:06:02;1.60;99.90
6291;DHT22;3178;48.730;8.990;2023-04-06T00:08:27;1.60;99.90
6291;DHT22;3178;48.730;8.990;2023-04-06T00:10:54;1.50;99.90
6291;DHT22;3178;48.730;8.990;2023-04-06T00:13:20;1.50;99.90
6291;DHT22;3178;48.730;8.990;2023-04-06T00:15:45;1.50;99.90
6291;DHT22;3178;48.730;8.990;2023-04-06T00:18:11;1.40;99.90
6291;DHT22;3178;48.730;8.990;2023-04-06T00:20:36;1.50;99.90
6291;DHT22;3178;48.730;8.990;2023-04-06T00:23:02;1.40;99.90
6291;DHT22;3178;48.730;8.990;2023-04-06T00:25:28;1.40;99.90
6291;DHT22;3178;48.730;8.990;2023-04-06T00:27:53;1.40;99.90
6291;DHT22;3178;48.730;8.990;2023-04-06T00:30:19;1.40;99.90
6291;DHT22;3178;48.730;8.990;2023-04-06T00:32:44;1.40;99.90
6291;DHT22;3178;48.730;8.990;2023-04-06T00:35:10;1.40;99.90
6291;DHT22;3178;48.730;8.990;2023-04-06T00:37:36;1.40;99.90
6291;DHT22;3178;48.730;8.990;2023-04-06T00:40:02;1.30;99.90
6291;DHT22;3178;48.730;8.990;2023-04-06T00:42:27;1.30;99.90
6291;DHT22;3178;48.730;8.990;2023-04-06T00:44:54;1.30;99.90
6291;DHT22;3178;48.730;8.990;2023-04-06T00:47:21;1.30;99.90
6291;DHT22;3178;48.730;8.990;2023-04-06T00:49:48;1.20;99.90
6291;DHT22;3178;48.730;8.990;2023-04-06T00:52:13;1.20;99.90
6291;DHT22;3178;48.730;8.990;2023-04-06T00:54:40;1.20;99.90
6291;DHT22;3178;48.730;8.990;2023-04-06T00:57:05;1.20;99.90
6291;DHT22;3178;48.730;8.990;2023-04-06T00:59:31;1.10;99.90
6291;DHT22;3178;48.730;8.990;2023-04-06T01:01:57;1.10;99.90
6291;DHT22;3178;48.730;8.990;2023-04-06T01:04:23;1.10;99.90
6291;DHT22;3178;48.730;8.990;2023-04-06T01:06:49;1.10;99.90
6291;DHT22;3178;48.730;8.990;2023-04-06T01:09:15;1.00;99.90
6291;DHT22;3178;48.730;8.990;2023-04-06T01:11:41;1.00;99.90
6291;DHT22;3178;48.730;8.990;2023-04-06T01:14:07;1.00;99.90
6291;DHT22;3178;48.730;8.990;2023-04-06T01:16:32;1.00;99.90
6291;DHT22;3178;48.730;8.990;2023-04-06T01:18:58;0.90;99.90
6291;DHT22;3178;48.730;8.990;2023-04-06T01:21:24;0.90;99.90
6291;DHT22;3178;48.730;8.990;2023-04-06T01:23:50;0.90;99.90
6291;DHT22;3178;48.730;8.990;2023-04-06T01:26:16;0.80;99.90
6291;DHT22;3178;48.730;8.990;2023-04-06T01:28:41;0.80;99.90
6291;DHT22;3178;48.730;8.990;2023-04-06T01:31:08;0.80;99.90
6291;DHT22;3178;48.730;8.990;2023-04-06T01:33:34;0.80;99.90
6291;DHT22;3178;48.730;8.990;2023-04-06T01:36:00;0.80;99.90
6291;DHT22;3178;48.730;8.990;2023-04-06T01:38:26;0.80;99.90
6291;DHT22;3178;48.730;8.990;2023-04-06T01:40:55;0.80;99.90
6291;DHT22;3178;48.730;8.990;2023-04-06T01:43:21;0.80;99.90
6291;DHT22;3178;48.730;8.990;2023-04-06T01:45:46;0.80;99.90
6291;DHT22;3178;48.730;8.990;2023-04-06T01:48:12;0.80;99.90
6291;DHT22;3178;48.730;8.990;2023-04-06T01:50:37;0.80;99.90
6291;DHT22;3178;48.730;8.990;2023-04-06T01:53:03;0.70;99.90
6291;DHT22;3178;48.730;8.990;2023-04-06T01:55:28;0.70;99.90
6291;DHT22;3178;48.730;8.990;2023-04-06T01:57:54;0.70;99.90
6291;DHT22;3178;48.730;8.990;2023-04-06T02:00:19;0.70;99.90
6291;DHT22;3178;48.730;8.990;2023-04-06T02:02:45;0.70;99.90
6291;DHT22;3178;48.730;8.990;2023-04-06T02:05:11;0.70;99.90
6291;DHT22;3178;48.730;8.990;2023-04-06T02:07:36;0.70;99.90
6291;DHT22;3178;48.730;8.990;2023-04-06T02:10:03;0.60;99.90
6291;DHT22;3178;48.730;8.990;2023-04-06T02:12:28;0.60;99.90
6291;DHT22;3178;48.730;8.990;2023-04-06T02:14:54;0.60;99.90
6291;DHT22;3178;48.730;8.990;2023-04-06T02:17:19;0.60;99.90
6291;DHT22;3178;48.730;8.990;2023-04-06T02:19:45;0.50;99.90
6291;DHT22;3178;48.730;8.990;2023-04-06T02:22:11;0.50;99.90
6291;DHT22;3178;48.730;8.990;2023-04-06T02:24:37;0.50;99.90
6291;DHT22;3178;48.730;8.990;2023-04-06T02:27:02;0.50;99.90
6291;DHT22;3178;48.730;8.990;2023-04-06T02:29:28;0.50;99.90
6291;DHT22;3178;48.730;8.990;2023-04-06T02:31:53;0.50;99.90
6291;DHT22;3178;48.730;8.990;2023-04-06T02:34:19;0.50;99.90
6291;DHT22;3178;48.730;8.990;2023-04-06T02:36:45;0.40;99.90
6291;DHT22;3178;48.730;8.990;2023-04-06T02:39:10;0.40;99.90
6291;DHT22;3178;48.730;8.990;2023-04-06T02:41:36;0.40;99.90
6291;DHT22;3178;48.730;8.990;2023-04-06T02:44:03;0.40;99.90
6291;DHT22;3178;48.730;8.990;2023-04-06T02:46:28;0.40;99.90
6291;DHT22;3178;48.730;8.990;2023-04-06T02:48:54;0.40;99.90
6291;DHT22;3178;48.730;8.990;2023-04-06T02:51:20;0.40;99.90
6291;DHT22;3178;48.730;8.990;2023-04-06T02:53:46;0.40;99.90
6291;DHT22;3178;48.730;8.990;2023-04-06T02:56:11;0.40;99.90
6291;DHT22;3178;48.730;8.990;2023-04-06T02:58:37;0.40;99.90
6291;DHT22;3178;48.730;8.990;2023-04-06T03:01:03;0.30;99.90
6291;DHT22;3178;48.730;8.990;2023-04-06T03:03:29;0.30;99.90
6291;DHT22;3178;48.730;8.990;2023-04-06T03:05:55;0.30;99.90
6291;DHT22;3178;48.730;8.990;2023-04-06T03:08:23;0.30;99.90
6291;DHT22;3178;48.730;8.990;2023-04-06T03:10:49;0.20;99.90
6291;DHT22;3178;48.730;8.990;2023-04-06T03:13:15;0.20;99.90
6291;DHT22;3178;48.730;8.990;2023-04-06T03:15:40;0.20;99.90
6291;DHT22;3178;48.730;8.990;2023-04-06T03:18:06;0.20;99.90
6291;DHT22;3178;48.730;8.990;2023-04-06T03:20:31;0.20;99.90
6291;DHT22;3178;48.730;8.990;2023-04-06T03:22:58;0.20;99.90
6291;DHT22;3178;48.730;8.990;2023-04-06T03:25:23;0.10;99.90
6291;DHT22;3178;48.730;8.990;2023-04-06T03:27:49;0.10;99.90
6291;DHT22;3178;48.730;8.990;2023-04-06T03:30:15;0.10;99.90
6291;DHT22;3178;48.730;8.990;2023-04-06T03:32:43;0.10;99.90
6291;DHT22;3178;48.730;8.990;2023-04-06T03:35:09;0.10;99.90
6291;DHT22;3178;48.730;8.990;2023-04-06T03:37:34;0.10;99.90
6291;DHT22;3178;48.730;8.990;2023-04-06T03:40:00;0.10;99.90
6291;DHT22;3178;48.730;8.990;2023-04-06T03:42:26;0.10;99.90
6291;DHT22;3178;48.730;8.990;2023-04-06T03:44:52;0.00;99.90
6291;DHT22;3178;48.730;8.990;2023-04-06T03:47:17;0.00;99.90
6291;DHT22;3178;48.730;8.990;2023-04-06T03:49:43;0.00;99.90
6291;DHT22;3178;48.730;8.990;2023-04-06T03:52:09;0.00;99.90
6291;DHT22;3178;48.730;8.990;2023-04-06T03:54:34;0.00;99.90
6291;DHT22;3178;48.730;8.990;2023-04-06T03:57:00;0.00;99.90
6291;DHT22;3178;48.730;8.990;2023-04-06T03:59:25;0.00;99.90
6291;DHT22;3178;48.730;8.990;2023-04-06T04:01:51;-0.10;99.90
6291;DHT22;3178;48.730;8.990;2023-04-06T04:04:16;-0.10;99.90
6291;DHT22;3178;48.730;8.990;2023-04-06T04:06:42;-0.10;99.90
6291;DHT22;3178;48.730;8.990;2023-04-06T04:09:08;-0.10;99.90
6291;DHT22;3178;48.730;8.990;2023-04-06T04:11:33;-0.10;99.90
6291;DHT22;3178;48.730;8.990;2023-04-06T04:13:59;-0.10;99.90
6291;DHT22;3178;48.730;8.990;2023-04-06T04:16:24;-0.10;99.90
6291;DHT22;3178;48.730;8.990;2023-04-06T04:18:50;-0.10;99.90
6291;DHT22;3178;48.730;8.990;2023-04-06T04:21:16;-0.10;99.90
6291;DHT22;3178;48.730;8.990;2023-04-06T04:23:41;-0.10;99.90
6291;DHT22;3178;48.730;8.990;2023-04-06T04:26:07;-0.10;99.90
6291;DHT22;3178;48.730;8.990;2023-04-06T04:28:32;-0.20;99.90
6291;DHT22;3178;48.730;8.990;2023-04-06T04:30:58;-0.20;99.90
6291;DHT22;3178;48.730;8.990;2023-04-06T04:33:23;-0.20;99.90
6291;DHT22;3178;48.730;8.990;2023-04-06T04:35:49;-0.20;99.90
6291;DHT22;3178;48.730;8.990;2023-04-06T04:38:14;-0.20;99.90
6291;DHT22;3178;48.730;8.990;2023-04-06T04:40:40;-0.30;99.90
6291;DHT22;3178;48.730;8.990;2023-04-06T04:43:05;-0.30;99.90
6291;DHT22;3178;48.730;8.990;2023-04-06T04:45:31;-0.30;99.90
6291;DHT22;3178;48.730;8.990;2023-04-06T04:47:56;-0.30;99.90
6291;DHT22;3178;48.730;8.990;2023-04-06T04:50:22;-0.20;99.90
6291;DHT22;3178;48.730;8.990;2023-04-06T04:52:47;-0.30;99.90
6291;DHT22;3178;48.730;8.990;2023-04-06T04:55:13;-0.30;99.90
6291;DHT22;3178;48.730;8.990;2023-04-06T04:57:39;-0.30;99.90
6291;DHT22;3178;48.730;8.990;2023-04-06T05:00:05;-0.30;99.90
6291;DHT22;3178;48.730;8.990;2023-04-06T05:02:31;-0.30;99.90
6291;DHT22;3178;48.730;8.990;2023-04-06T05:04:56;-0.30;99.90
6291;DHT22;3178;48.730;8.990;2023-04-06T05:07:22;-0.30;99.90
6291;DHT22;3178;48.730;8.990;2023-04-06T05:09:48;-0.30;99.90
6291;DHT22;3178;48.730;8.990;2023-04-06T05:12:13;-0.30;99.90
6291;DHT22;3178;48.730;8.990;2023-04-06T05:14:39;-0.30;99.90
6291;DHT22;3178;48.730;8.990;2023-04-06T05:17:05;-0.30;99.90
6291;DHT22;3178;48.730;8.990;2023-04-06T05:19:30;-0.30;99.90
6291;DHT22;3178;48.730;8.990;2023-04-06T05:21:56;-0.30;99.90
6291;DHT22;3178;48.730;8.990;2023-04-06T05:24:21;-0.30;99.90
6291;DHT22;3178;48.730;8.990;2023-04-06T05:26:48;-0.30;99.90
6291;DHT22;3178;48.730;8.990;2023-04-06T05:29:13;-0.30;99.90
6291;DHT22;3178;48.730;8.990;2023-04-06T05:31:39;-0.30;99.90
6291;DHT22;3178;48.730;8.990;2023-04-06T05:34:05;-0.20;99.90
6291;DHT22;3178;48.730;8.990;2023-04-06T05:36:30;-0.20;99.90
6291;DHT22;3178;48.730;8.990;2023-04-06T05:38:57;-0.20;99.90
6291;DHT22;3178;48.730;8.990;2023-04-06T05:41:23;-0.20;99.90
6291;DHT22;3178;48.730;8.990;2023-04-06T05:43:49;-0.10;99.90
6291;DHT22;3178;48.730;8.990;2023-04-06T05:46:14;-0.10;99.90
6291;DHT22;3178;48.730;8.990;2023-04-06T05:48:40;-0.10;99.90
6291;DHT22;3178;48.730;8.990;2023-04-06T05:51:06;0.00;99.90
6291;DHT22;3178;48.730;8.990;2023-04-06T05:53:31;0.00;99.90
6291;DHT22;3178;48.730;8.990;2023-04-06T05:56:00;0.00;99.90
6291;DHT22;3178;48.730;8.990;2023-04-06T05:58:26;0.10;99.90
6291;DHT22;3178;48.730;8.990;2023-04-06T06:00:56;0.10;99.90
6291;DHT22;3178;48.730;8.990;2023-04-06T06:03:22;0.20;99.90
6291;DHT22;3178;48.730;8.990;2023-04-06T06:05:48;0.40;99.90
6291;DHT22;3178;48.730;8.990;2023-04-06T06:08:13;0.50;99.90
6291;DHT22;3178;48.730;8.990;2023-04-06T06:10:39;0.60;99.90
6291;DHT22;3178;48.730;8.990;2023-04-06T06:13:05;0.80;99.90
6291;DHT22;3178;48.730;8.990;2023-04-06T06:15:31;0.90;99.90
6291;DHT22;3178;48.730;8.990;2023-04-06T06:17:56;1.00;99.90
6291;DHT22;3178;48.730;8.990;2023-04-06T06:20:22;1.10;99.90
6291;DHT22;3178;48.730;8.990;2023-04-06T06:22:47;1.30;99.90
6291;DHT22;3178;48.730;8.990;2023-04-06T06:25:13;1.40;99.90
6291;DHT22;3178;48.730;8.990;2023-04-06T06:27:39;1.60;99.90
6291;DHT22;3178;48.730;8.990;2023-04-06T06:30:05;1.80;99.90
6291;DHT22;3178;48.730;8.990;2023-04-06T06:32:31;2.10;99.90
6291;DHT22;3178;48.730;8.990;2023-04-06T06:34:57;2.30;99.90
6291;DHT22;3178;48.730;8.990;2023-04-06T06:37:22;2.60;99.90
6291;DHT22;3178;48.730;8.990;2023-04-06T06:39:48;3.00;99.90
6291;DHT22;3178;48.730;8.990;2023-04-06T06:42:14;3.40;99.90
6291;DHT22;3178;48.730;8.990;2023-04-06T06:44:44;3.70;99.90
6291;DHT22;3178;48.730;8.990;2023-04-06T06:47:10;4.20;99.90
6291;DHT22;3178;48.730;8.990;2023-04-06T06:49:35;4.40;99.90
6291;DHT22;3178;48.730;8.990;2023-04-06T06:52:01;4.90;99.90
6291;DHT22;3178;48.730;8.990;2023-04-06T06:54:26;5.20;99.90
6291;DHT22;3178;48.730;8.990;2023-04-06T06:56:52;5.50;99.90
6291;DHT22;3178;48.730;8.990;2023-04-06T06:59:19;5.70;99.90
6291;DHT22;3178;48.730;8.990;2023-04-06T07:01:46;5.90;99.90
6291;DHT22;3178;48.730;8.990;2023-04-06T07:04:11;6.20;99.90
6291;DHT22;3178;48.730;8.990;2023-04-06T07:06:37;6.60;99.90
6291;DHT22;3178;48.730;8.990;2023-04-06T07:09:03;6.90;99.90
6291;DHT22;3178;48.730;8.990;2023-04-06T07:11:29;7.20;99.90
6291;DHT22;3178;48.730;8.990;2023-04-06T07:13:55;7.40;99.90
6291;DHT22;3178;48.730;8.990;2023-04-06T07:16:21;7.80;99.90
6291;DHT22;3178;48.730;8.990;2023-04-06T07:18:46;8.20;98.90
6291;DHT22;3178;48.730;8.990;2023-04-06T07:21:12;8.40;97.80
6291;DHT22;3178;48.730;8.990;2023-04-06T07:23:37;8.80;97.30
6291;DHT22;3178;48.730;8.990;2023-04-06T07:26:03;9.10;94.90
6291;DHT22;3178;48.730;8.990;2023-04-06T07:28:28;9.10;94.60
6291;DHT22;3178;48.730;8.990;2023-04-06T07:30:54;9.10;93.00
6291;DHT22;3178;48.730;8.990;2023-04-06T07:33:20;9.20;92.50
6291;DHT22;3178;48.730;8.990;2023-04-06T07:35:45;9.40;91.90
6291;DHT22;3178;48.730;8.990;2023-04-06T07:38:11;9.70;92.90
6291;DHT22;3178;48.730;8.990;2023-04-06T07:40:37;10.40;89.90
6291;DHT22;3178;48.730;8.990;2023-04-06T07:43:02;10.70;90.40
6291;DHT22;3178;48.730;8.990;2023-04-06T07:45:28;10.70;84.90
6291;DHT22;3178;48.730;8.990;2023-04-06T07:47:54;10.60;85.90
6291;DHT22;3178;48.730;8.990;2023-04-06T07:50:20;11.00;84.50
6291;DHT22;3178;48.730;8.990;2023-04-06T07:52:45;11.20;81.20
6291;DHT22;3178;48.730;8.990;2023-04-06T07:55:11;11.50;80.20
6291;DHT22;3178;48.730;8.990;2023-04-06T07:57:36;12.00;78.90
6291;DHT22;3178;48.730;8.990;2023-04-06T08:00:02;12.40;78.10
6291;DHT22;3178;48.730;8.990;2023-04-06T08:02:29;12.30;76.00
6291;DHT22;3178;48.730;8.990;2023-04-06T08:04:55;12.30;80.40
6291;DHT22;3178;48.730;8.990;2023-04-06T08:07:20;12.70;76.80
6291;DHT22;3178;48.730;8.990;2023-04-06T08:09:46;13.00;74.90
6291;DHT22;3178;48.730;8.990;2023-04-06T08:12:12;13.40;75.70
6291;DHT22;3178;48.730;8.990;2023-04-06T08:14:37;13.60;73.30
6291;DHT22;3178;48.730;8.990;2023-04-06T08:17:03;13.70;74.60
6291;DHT22;3178;48.730;8.990;2023-04-06T08:19:28;14.00;73.00
6291;DHT22;3178;48.730;8.990;2023-04-06T08:21:54;14.10;73.70
6291;DHT22;3178;48.730;8.990;2023-04-06T08:24:19;14.20;70.50
6291;DHT22;3178;48.730;8.990;2023-04-06T08:26:45;14.40;69.00
6291;DHT22;3178;48.730;8.990;2023-04-06T08:29:11;14.30;68.50
6291;DHT22;3178;48.730;8.990;2023-04-06T08:31:36;14.60;69.80
6291;DHT22;3178;48.730;8.990;2023-04-06T08:34:03;14.80;67.80
6291;DHT22;3178;48.730;8.990;2023-04-06T08:36:29;15.50;69.80
6291;DHT22;3178;48.730;8.990;2023-04-06T08:38:55;15.50;63.20
6291;DHT22;3178;48.730;8.990;2023-04-06T08:41:20;15.20;67.00
6291;DHT22;3178;48.730;8.990;2023-04-06T08:43:59;15.50;63.30
6291;DHT22;3178;48.730;8.990;2023-04-06T08:46:26;16.00;59.60
6291;DHT22;3178;48.730;8.990;2023-04-06T08:48:58;16.30;60.00
6291;DHT22;3178;48.730;8.990;2023-04-06T08:51:24;16.30;58.20
6291;DHT22;3178;48.730;8.990;2023-04-06T08:53:57;16.40;60.00
6291;DHT22;3178;48.730;8.990;2023-04-06T08:56:24;16.50;60.70
6291;DHT22;3178;48.730;8.990;2023-04-06T08:58:50;16.90;59.20
6291;DHT22;3178;48.730;8.990;2023-04-06T09:01:20;17.00;57.50
6291;DHT22;3178;48.730;8.990;2023-04-06T09:03:46;17.20;57.20
6291;DHT22;3178;48.730;8.990;2023-04-06T09:06:13;17.30;57.70
6291;DHT22;3178;48.730;8.990;2023-04-06T09:08:41;17.20;53.20
6291;DHT22;3178;48.730;8.990;2023-04-06T09:11:08;17.40;53.30
6291;DHT22;3178;48.730;8.990;2023-04-06T09:13:48;17.70;52.20
6291;DHT22;3178;48.730;8.990;2023-04-06T09:16:14;17.70;52.00
6291;DHT22;3178;48.730;8.990;2023-04-06T09:18:41;18.20;50.40
6291;DHT22;3178;48.730;8.990;2023-04-06T09:21:07;18.30;50.10
6291;DHT22;3178;48.730;8.990;2023-04-06T09:23:33;17.80;53.10
6291;DHT22;3178;48.730;8.990;2023-04-06T09:26:17;18.20;50.60
6291;DHT22;3178;48.730;8.990;2023-04-06T09:28:53;18.40;49.60
6291;DHT22;3178;48.730;8.990;2023-04-06T09:31:27;18.30;47.30
6291;DHT22;3178;48.730;8.990;2023-04-06T09:33:54;17.90;45.50
6291;DHT22;3178;48.730;8.990;2023-04-06T09:36:29;17.70;46.80
6291;DHT22;3178;48.730;8.990;2023-04-06T09:38:57;17.60;46.00
6291;DHT22;3178;48.730;8.990;2023-04-06T09:41:34;17.20;48.70
6291;DHT22;3178;48.730;8.990;2023-04-06T09:44:07;17.00;48.10
6291;DHT22;3178;48.730;8.990;2023-04-06T09:46:38;16.80;49.60
6291;DHT22;3178;48.730;8.990;2023-04-06T09:49:05;16.90;50.10
6291;DHT22;3178;48.730;8.990;2023-04-06T09:51:37;17.00;50.30
6291;DHT22;3178;48.730;8.990;2023-04-06T09:54:03;17.80;49.70
6291;DHT22;3178;48.730;8.990;2023-04-06T09:56:55;17.30;49.50
6291;DHT22;3178;48.730;8.990;2023-04-06T10:01:53;17.60;46.90
6291;DHT22;3178;48.730;8.990;2023-04-06T10:04:39;17.10;47.50
6291;DHT22;3178;48.730;8.990;2023-04-06T10:07:06;16.90;49.00
6291;DHT22;3178;48.730;8.990;2023-04-06T10:09:34;16.50;46.80
6291;DHT22;3178;48.730;8.990;2023-04-06T10:12:05;15.70;51.00
6291;DHT22;3178;48.730;8.990;2023-04-06T10:14:33;16.10;48.50
6291;DHT22;3178;48.730;8.990;2023-04-06T10:17:02;16.50;47.30
6291;DHT22;3178;48.730;8.990;2023-04-06T10:19:32;17.00;47.80
6291;DHT22;3178;48.730;8.990;2023-04-06T10:22:00;17.80;46.90
6291;DHT22;3178;48.730;8.990;2023-04-06T10:24:27;18.00;47.00
6291;DHT22;3178;48.730;8.990;2023-04-06T10:27:02;18.00;47.40
6291;DHT22;3178;48.730;8.990;2023-04-06T10:29:27;17.80;48.40
6291;DHT22;3178;48.730;8.990;2023-04-06T10:31:53;18.10;46.70
6291;DHT22;3178;48.730;8.990;2023-04-06T10:34:20;17.80;47.30
6291;DHT22;3178;48.730;8.990;2023-04-06T10:36:46;17.90;47.40
6291;DHT22;3178;48.730;8.990;2023-04-06T10:39:11;17.20;44.50
6291;DHT22;3178;48.730;8.990;2023-04-06T10:41:45;16.80;45.70
6291;DHT22;3178;48.730;8.990;2023-04-06T10:44:23;17.10;48.60
6291;DHT22;3178;48.730;8.990;2023-04-06T10:46:56;17.90;47.90
6291;DHT22;3178;48.730;8.990;2023-04-06T10:49:22;18.20;47.70
6291;DHT22;3178;48.730;8.990;2023-04-06T10:51:54;17.90;46.50
6291;DHT22;3178;48.730;8.990;2023-04-06T10:54:25;17.50;45.70
6291;DHT22;3178;48.730;8.990;2023-04-06T10:56:52;16.70;45.80
6291;DHT22;3178;48.730;8.990;2023-04-06T10:59:21;16.40;48.20
6291;DHT22;3178;48.730;8.990;2023-04-06T11:01:47;16.40;47.00
6291;DHT22;3178;48.730;8.990;2023-04-06T11:04:16;16.40;46.80
6291;DHT22;3178;48.730;8.990;2023-04-06T11:06:46;16.50;46.60
6291;DHT22;3178;48.730;8.990;2023-04-06T11:09:26;15.90;45.50
6291;DHT22;3178;48.730;8.990;2023-04-06T11:11:53;15.40;45.30
6291;DHT22;3178;48.730;8.990;2023-04-06T11:14:18;14.90;46.90
6291;DHT22;3178;48.730;8.990;2023-04-06T11:16:46;14.80;48.20
6291;DHT22;3178;48.730;8.990;2023-04-06T11:19:12;14.60;47.40
6291;DHT22;3178;48.730;8.990;2023-04-06T11:21:43;14.70;48.90
6291;DHT22;3178;48.730;8.990;2023-04-06T11:24:13;14.80;50.60
6291;DHT22;3178;48.730;8.990;2023-04-06T11:26:46;15.00;49.00
6291;DHT22;3178;48.730;8.990;2023-04-06T11:29:15;15.40;48.50
6291;DHT22;3178;48.730;8.990;2023-04-06T11:31:46;15.20;50.20
6291;DHT22;3178;48.730;8.990;2023-04-06T11:34:15;15.20;48.30
6291;DHT22;3178;48.730;8.990;2023-04-06T11:36:42;15.00;49.70
6291;DHT22;3178;48.730;8.990;2023-04-06T11:39:08;15.00;51.40
6291;DHT22;3178;48.730;8.990;2023-04-06T11:41:33;15.10;50.10
6291;DHT22;3178;48.730;8.990;2023-04-06T11:44:01;14.80;48.20
6291;DHT22;3178;48.730;8.990;2023-04-06T11:46:28;14.90;50.10
6291;DHT22;3178;48.730;8.990;2023-04-06T11:48:58;15.20;49.40
6291;DHT22;3178;48.730;8.990;2023-04-06T11:51:23;15.40;48.70
6291;DHT22;3178;48.730;8.990;2023-04-06T11:53:49;15.30;49.60
6291;DHT22;3178;48.730;8.990;2023-04-06T11:56:28;15.10;47.20
6291;DHT22;3178;48.730;8.990;2023-04-06T11:58:56;14.70;46.20
6291;DHT22;3178;48.730;8.990;2023-04-06T12:01:22;14.70;51.20
6291;DHT22;3178;48.730;8.990;2023-04-06T12:03:48;15.20;56.60
6291;DHT22;3178;48.730;8.990;2023-04-06T12:06:14;15.60;50.40
6291;DHT22;3178;48.730;8.990;2023-04-06T12:08:39;16.00;50.40
6291;DHT22;3178;48.730;8.990;2023-04-06T12:11:05;16.20;53.90
6291;DHT22;3178;48.730;8.990;2023-04-06T12:13:31;16.40;53.50
6291;DHT22;3178;48.730;8.990;2023-04-06T12:15:56;16.50;49.00
6291;DHT22;3178;48.730;8.990;2023-04-06T12:18:22;16.70;51.80
6291;DHT22;3178;48.730;8.990;2023-04-06T12:20:48;16.80;50.90
6291;DHT22;3178;48.730;8.990;2023-04-06T12:23:13;16.60;46.60
6291;DHT22;3178;48.730;8.990;2023-04-06T12:25:40;15.90;45.30
6291;DHT22;3178;48.730;8.990;2023-04-06T12:28:06;15.80;47.50
6291;DHT22;3178;48.730;8.990;2023-04-06T12:30:32;15.60;49.90
6291;DHT22;3178;48.730;8.990;2023-04-06T12:32:58;15.60;50.10
6291;DHT22;3178;48.730;8.990;2023-04-06T12:35:23;15.60;48.40
6291;DHT22;3178;48.730;8.990;2023-04-06T12:37:49;15.70;47.30
6291;DHT22;3178;48.730;8.990;2023-04-06T12:40:15;15.80;48.80
6291;DHT22;3178;48.730;8.990;2023-04-06T12:42:40;15.70;49.40
6291;DHT22;3178;48.730;8.990;2023-04-06T12:45:07;15.40;48.40
6291;DHT22;3178;48.730;8.990;2023-04-06T12:47:33;15.20;47.40
6291;DHT22;3178;48.730;8.990;2023-04-06T12:49:59;14.70;45.90
6291;DHT22;3178;48.730;8.990;2023-04-06T12:52:24;14.50;45.40
6291;DHT22;3178;48.730;8.990;2023-04-06T12:54:50;14.50;49.30
6291;DHT22;3178;48.730;8.990;2023-04-06T12:57:16;14.80;46.60
6291;DHT22;3178;48.730;8.990;2023-04-06T12:59:45;14.80;49.40
6291;DHT22;3178;48.730;8.990;2023-04-06T13:02:11;14.80;45.60
6291;DHT22;3178;48.730;8.990;2023-04-06T13:04:37;14.70;46.40
6291;DHT22;3178;48.730;8.990;2023-04-06T13:07:02;14.80;47.10
6291;DHT22;3178;48.730;8.990;2023-04-06T13:09:28;14.80;46.40
6291;DHT22;3178;48.730;8.990;2023-04-06T13:11:53;14.90;47.10
6291;DHT22;3178;48.730;8.990;2023-04-06T13:14:19;14.80;45.40
6291;DHT22;3178;48.730;8.990;2023-04-06T13:16:44;14.80;45.10
6291;DHT22;3178;48.730;8.990;2023-04-06T13:19:10;14.80;44.80
6291;DHT22;3178;48.730;8.990;2023-04-06T13:21:36;14.70;45.40
6291;DHT22;3178;48.730;8.990;2023-04-06T13:24:01;14.60;46.20
6291;DHT22;3178;48.730;8.990;2023-04-06T13:26:27;14.80;45.60
6291;DHT22;3178;48.730;8.990;2023-04-06T13:28:53;14.70;46.30
6291;DHT22;3178;48.730;8.990;2023-04-06T13:31:21;14.90;47.00
6291;DHT22;3178;48.730;8.990;2023-04-06T13:33:46;14.80;47.60
6291;DHT22;3178;48.730;8.990;2023-04-06T13:36:12;14.80;49.20
6291;DHT22;3178;48.730;8.990;2023-04-06T13:38:37;14.60;46.90
6291;DHT22;3178;48.730;8.990;2023-04-06T13:41:04;14.30;49.30
6291;DHT22;3178;48.730;8.990;2023-04-06T13:43:30;14.40;52.40
6291;DHT22;3178;48.730;8.990;2023-04-06T13:45:56;14.50;51.00
6291;DHT22;3178;48.730;8.990;2023-04-06T13:48:23;14.50;49.20
6291;DHT22;3178;48.730;8.990;2023-04-06T13:50:49;14.40;48.60
6291;DHT22;3178;48.730;8.990;2023-04-06T13:53:15;14.40;49.50
6291;DHT22;3178;48.730;8.990;2023-04-06T13:55:41;14.40;48.20
6291;DHT22;3178;48.730;8.990;2023-04-06T13:58:06;14.40;50.40
6291;DHT22;3178;48.730;8.990;2023-04-06T14:00:32;14.50;50.60
6291;DHT22;3178;48.730;8.990;2023-04-06T14:02:57;14.60;50.30
6291;DHT22;3178;48.730;8.990;2023-04-06T14:05:23;14.50;52.40
6291;DHT22;3178;48.730;8.990;2023-04-06T14:07:49;14.60;55.20
6291;DHT22;3178;48.730;8.990;2023-04-06T14:10:15;14.70;55.70
6291;DHT22;3178;48.730;8.990;2023-04-06T14:12:42;14.80;53.10
6291;DHT22;3178;48.730;8.990;2023-04-06T14:15:10;14.90;55.20
6291;DHT22;3178;48.730;8.990;2023-04-06T14:17:37;15.00;56.60
6291;DHT22;3178;48.730;8.990;2023-04-06T14:20:04;15.10;55.50
6291;DHT22;3178;48.730;8.990;2023-04-06T14:22:29;15.00;52.10
6291;DHT22;3178;48.730;8.990;2023-04-06T14:24:55;15.10;51.10
6291;DHT22;3178;48.730;8.990;2023-04-06T14:27:21;15.00;52.30
6291;DHT22;3178;48.730;8.990;2023-04-06T14:29:47;14.90;53.60
6291;DHT22;3178;48.730;8.990;2023-04-06T14:32:12;14.80;54.20
6291;DHT22;3178;48.730;8.990;2023-04-06T14:34:38;14.70;52.00
6291;DHT22;3178;48.730;8.990;2023-04-06T14:37:03;14.40;52.70
6291;DHT22;3178;48.730;8.990;2023-04-06T14:39:29;14.30;53.80
6291;DHT22;3178;48.730;8.990;2023-04-06T14:41:54;14.20;51.80
6291;DHT22;3178;48.730;8.990;2023-04-06T14:44:21;14.20;53.00
6291;DHT22;3178;48.730;8.990;2023-04-06T14:46:46;14.20;57.20
6291;DHT22;3178;48.730;8.990;2023-04-06T14:49:12;14.20;55.10
6291;DHT22;3178;48.730;8.990;2023-04-06T14:51:38;14.20;53.20
6291;DHT22;3178;48.730;8.990;2023-04-06T14:54:04;14.10;52.90
6291;DHT22;3178;48.730;8.990;2023-04-06T14:56:30;14.00;54.60
6291;DHT22;3178;48.730;8.990;2023-04-06T14:58:58;14.00;57.60
6291;DHT22;3178;48.730;8.990;2023-04-06T15:01:24;14.00;54.20
6291;DHT22;3178;48.730;8.990;2023-04-06T15:03:50;13.90;53.40
6291;DHT22;3178;48.730;8.990;2023-04-06T15:06:17;13.80;54.70
6291;DHT22;3178;48.730;8.990;2023-04-06T15:08:43;13.70;53.00
6291;DHT22;3178;48.730;8.990;2023-04-06T15:11:09;13.60;53.80
6291;DHT22;3178;48.730;8.990;2023-04-06T15:13:35;13.60;54.90
6291;DHT22;3178;48.730;8.990;2023-04-06T15:16:00;13.50;54.80
6291;DHT22;3178;48.730;8.990;2023-04-06T15:18:26;13.50;54.20
6291;DHT22;3178;48.730;8.990;2023-04-06T15:20:51;13.50;54.70
6291;DHT22;3178;48.730;8.990;2023-04-06T15:23:17;13.50;55.40
6291;DHT22;3178;48.730;8.990;2023-04-06T15:25:43;13.50;53.60
6291;DHT22;3178;48.730;8.990;2023-04-06T15:28:09;13.40;54.20
6291;DHT22;3178;48.730;8.990;2023-04-06T15:30:35;13.30;56.00
6291;DHT22;3178;48.730;8.990;2023-04-06T15:33:01;13.30;57.10
6291;DHT22;3178;48.730;8.990;2023-04-06T15:35:31;13.30;56.60
6291;DHT22;3178;48.730;8.990;2023-04-06T15:37:59;13.20;57.20
6291;DHT22;3178;48.730;8.990;2023-04-06T15:40:26;13.20;57.80
6291;DHT22;3178;48.730;8.990;2023-04-06T15:42:51;13.30;58.10
6291;DHT22;3178;48.730;8.990;2023-04-06T15:45:17;13.30;59.90
6291;DHT22;3178;48.730;8.990;2023-04-06T15:47:44;13.30;59.50
6291;DHT22;3178;48.730;8.990;2023-04-06T15:50:10;13.30;56.50
6291;DHT22;3178;48.730;8.990;2023-04-06T15:52:37;13.30;57.90
6291;DHT22;3178;48.730;8.990;2023-04-06T15:55:04;13.20;58.10
6291;DHT22;3178;48.730;8.990;2023-04-06T15:57:30;13.20;57.30
6291;DHT22;3178;48.730;8.990;2023-04-06T15:59:56;13.10;58.60
6291;DHT22;3178;48.730;8.990;2023-04-06T16:02:22;13.10;57.80
6291;DHT22;3178;48.730;8.990;2023-04-06T16:04:57;13.00;59.90